Time;durP1;ratioP1;P1;durP2;ratioP2;P2;SDS_P1;SDS_P2;PMS_P1;PMS_P2;Temp;Humidity;BMP_temperature;BMP_pressure;BME280_temperature;BME280_humidity;BME280_pressure;Samples;Min_cycle;Max_cycle;Signal;HPM_P1;HPM_P2
2022/09/22 00:02:09;;;;;;;3.58;2.30;;;;;;;11.25;71.73;100182.31;5048431;28;20029;-27
2022/09/22 00:04:35;;;;;;;3.65;2.25;;;;;;;11.23;71.78;100187.88;5066648;28;20135;-26
2022/09/22 00:07:00;;;;;;;5.47;2.58;;;;;;;11.31;71.90;100184.09;5066582;28;20028;-27
2022/09/22 00:09:26;;;;;;;4.35;2.20;;;;;;;11.32;71.77;100185.75;5066766;28;20032;-27
2022/09/22 00:11:52;;;;;;;4.32;2.55;;;;;;;11.38;71.22;100168.84;5066233;28;20035;-27
2022/09/22 00:14:24;;;;;;;3.95;2.20;;;;;;;11.38;71.59;100168.00;5066839;28;20034;-29
2022/09/22 00:16:53;;;;;;;4.03;2.05;;;;;;;11.45;70.91;100180.25;5066749;28;20033;-30
2022/09/22 00:19:25;;;;;;;5.25;2.22;;;;;;;11.37;70.55;100169.06;5066977;28;20028;-30
2022/09/22 00:21:51;;;;;;;4.13;2.00;;;;;;;11.50;70.95;100181.44;5066697;28;20032;-27
2022/09/22 00:24:18;;;;;;;7.05;2.60;;;;;;;11.32;71.10;100180.41;5048418;28;20036;-27
2022/09/22 00:26:43;;;;;;;4.53;2.42;;;;;;;11.39;71.65;100172.31;5048247;28;20024;-27
2022/09/22 00:29:11;;;;;;;4.22;2.28;;;;;;;11.33;70.99;100154.50;5066659;28;20056;-27
2022/09/22 00:31:39;;;;;;;4.00;2.08;;;;;;;11.61;70.12;100172.69;5066566;28;20032;-28
2022/09/22 00:34:06;;;;;;;4.88;2.10;;;;;;;11.40;70.83;100177.44;5048075;28;20040;-26
2022/09/22 00:36:32;;;;;;;5.22;2.10;;;;;;;11.53;70.55;100187.16;5066242;28;20028;-27
2022/09/22 00:38:58;;;;;;;5.85;2.60;;;;;;;11.50;70.10;100165.41;5066178;28;20089;-28
2022/09/22 00:41:35;;;;;;;5.55;2.20;;;;;;;11.74;68.83;100171.72;5066528;28;20036;-29
2022/09/22 00:44:25;;;;;;;4.18;2.17;;;;;;;11.53;70.05;100179.16;5048226;28;20025;-26
2022/09/22 00:47:13;;;;;;;4.82;2.20;;;;;;;11.63;69.24;100171.44;5066301;28;20025;-25
2022/09/22 00:49:50;;;;;;;3.85;2.30;;;;;;;11.70;69.31;100170.53;5066241;28;20024;-27
2022/09/22 00:52:21;;;;;;;4.07;2.33;;;;;;;11.62;69.27;100152.94;5049556;28;20032;-26
2022/09/22 00:54:48;;;;;;;3.58;2.33;;;;;;;11.66;69.30;100149.59;5070208;28;20480;-26
2022/09/22 00:57:19;;;;;;;5.68;3.00;;;;;;;11.66;68.86;100165.63;5069838;28;20040;-29
2022/09/22 00:59:47;;;;;;;5.95;2.67;;;;;;;11.59;68.96;100158.75;5069857;28;20543;-26
2022/09/22 01:02:12;;;;;;;5.03;2.60;;;;;;;11.62;68.79;100145.75;5051474;28;20115;-28
2022/09/22 01:04:40;;;;;;;9.32;2.72;;;;;;;11.52;69.80;100153.47;5069560;28;20496;-29
2022/09/22 01:07:06;;;;;;;4.93;2.58;;;;;;;11.77;68.79;100168.59;5069730;28;20028;-31
2022/09/22 01:09:32;;;;;;;4.85;2.40;;;;;;;11.62;69.01;100161.78;5069631;28;20064;-27
2022/09/22 01:11:59;;;;;;;5.65;2.80;;;;;;;11.43;69.22;100152.97;5069489;28;20059;-27
2022/09/22 01:14:51;;;;;;;4.47;2.70;;;;;;;11.55;70.12;100169.06;5069315;28;20540;-27
2022/09/22 01:17:28;;;;;;;7.20;2.83;;;;;;;11.67;69.12;100166.47;5045296;28;20082;-28
2022/09/22 01:20:31;;;;;;;5.67;3.07;;;;;;;11.48;69.89;100165.63;5069234;28;20044;-28
2022/09/22 01:23:20;;;;;;;5.35;2.78;;;;;;;11.23;70.50;100165.69;5069150;28;20498;-27
2022/09/22 01:25:51;;;;;;;6.47;3.00;;;;;;;11.31;70.49;100162.75;5069473;28;20489;-28
2022/09/22 01:28:45;;;;;;;5.68;3.00;;;;;;;11.17;70.63;100159.38;5050974;28;20458;-29
2022/09/22 01:31:20;;;;;;;3.92;2.53;;;;;;;11.05;71.43;100164.66;5069019;28;20028;-27
2022/09/22 01:34:07;;;;;;;4.68;2.72;;;;;;;11.10;70.94;100163.16;5051217;28;20131;-26
2022/09/22 01:36:43;;;;;;;7.15;2.58;;;;;;;11.09;70.89;100164.19;5069410;28;20029;-27
2022/09/22 01:39:17;;;;;;;4.07;2.42;;;;;;;11.06;71.37;100163.59;5068981;28;20060;-30
2022/09/22 01:41:59;;;;;;;4.55;2.63;;;;;;;11.01;71.39;100157.28;5069192;28;20042;-27
2022/09/22 01:44:30;;;;;;;5.22;2.90;;;;;;;10.88;72.03;100157.41;5050971;28;20041;-26
2022/09/22 01:47:25;;;;;;;4.80;2.50;;;;;;;10.79;72.92;100146.19;5068996;28;20024;-27
2022/09/22 01:49:55;;;;;;;5.95;2.72;;;;;;;10.67;72.45;100140.75;5042037;28;20421;-26
2022/09/22 01:52:27;;;;;;;4.28;2.60;;;;;;;10.81;72.55;100168.94;5068971;28;20024;-27
2022/09/22 01:55:02;;;;;;;5.93;2.80;;;;;;;10.73;73.08;100171.09;5068835;28;20498;-27
2022/09/22 01:57:35;;;;;;;4.93;2.70;;;;;;;10.81;72.37;100162.81;5068966;28;20028;-27
2022/09/22 02:00:05;;;;;;;4.88;2.70;;;;;;;10.76;72.99;100155.44;5068624;28;20082;-29
2022/09/22 02:02:41;;;;;;;5.50;3.33;;;;;;;10.70;73.00;100155.50;5068389;28;20559;-27
2022/09/22 02:05:13;;;;;;;5.97;2.65;;;;;;;10.77;72.88;100156.28;5067802;28;20052;-25
2022/09/22 02:07:44;;;;;;;4.25;2.47;;;;;;;10.75;72.11;100159.16;5068685;28;20089;-25
2022/09/22 02:10:13;;;;;;;6.05;2.85;;;;;;;10.56;72.41;100130.78;5068121;28;20032;-27
2022/09/22 02:12:39;;;;;;;4.90;2.83;;;;;;;10.68;72.64;100150.38;5068152;28;20020;-27
2022/09/22 02:15:58;;;;;;;5.35;3.25;;;;;;;10.67;72.67;100148.75;5068038;28;20031;-29
2022/09/22 02:18:02;;;;;;;5.63;3.40;;;;;;;10.60;73.95;100161.31;5065568;28;20036;-26
2022/09/22 02:20:27;;;;;;;5.40;2.85;;;;;;;10.58;72.74;100147.38;5067970;28;20032;-27
2022/09/22 02:22:53;;;;;;;4.70;2.63;;;;;;;10.71;72.99;100168.63;5049744;28;20024;-28
2022/09/22 02:25:22;;;;;;;5.57;2.70;;;;;;;10.62;73.45;100159.25;5067694;28;20029;-30
2022/09/22 02:27:51;;;;;;;5.32;3.10;;;;;;;10.58;73.40;100150.03;5067695;28;20020;-27
2022/09/22 02:30:17;;;;;;;4.95;3.08;;;;;;;10.66;73.17;100149.78;5067621;28;20150;-28
2022/09/22 02:32:47;;;;;;;5.53;2.88;;;;;;;10.75;72.78;100161.81;5067838;28;20103;-26
2022/09/22 02:35:13;;;;;;;5.18;2.85;;;;;;;10.63;72.79;100131.56;5065414;28;20024;-29
2022/09/22 02:37:48;;;;;;;5.47;2.90;;;;;;;10.64;73.18;100151.84;5067454;28;20027;-29
2022/09/22 02:40:29;;;;;;;6.15;3.03;;;;;;;10.81;72.75;100160.13;5065596;28;20512;-27
2022/09/22 02:43:13;;;;;;;4.95;2.70;;;;;;;10.76;72.58;100160.78;5065759;28;20039;-27
2022/09/22 02:45:52;;;;;;;5.53;2.78;;;;;;;10.78;72.24;100137.38;5067814;28;20036;-26
2022/09/22 02:48:26;;;;;;;6.50;3.25;;;;;;;10.85;72.07;100159.47;5067655;28;20062;-26
2022/09/22 02:50:53;;;;;;;5.60;3.45;;;;;;;10.64;72.56;100141.16;5067946;28;20033;-27
2022/09/22 02:53:19;;;;;;;6.53;3.23;;;;;;;10.69;73.17;100160.03;5067560;28;20029;-29
2022/09/22 02:55:45;;;;;;;6.35;3.33;;;;;;;10.54;73.35;100148.84;5067550;28;20043;-26
2022/09/22 02:58:13;;;;;;;6.07;3.35;;;;;;;10.64;73.10;100158.00;5066809;28;20083;-28
2022/09/22 03:00:38;;;;;;;7.55;3.80;;;;;;;10.65;73.40;100164.16;5048828;28;20039;-29
2022/09/22 03:03:03;;;;;;;7.05;3.90;;;;;;;10.68;74.29;100162.91;5067053;28;20028;-28
2022/09/22 03:05:29;;;;;;;10.75;4.60;;;;;;;10.83;73.52;100163.41;5066647;28;20048;-30
2022/09/22 03:07:55;;;;;;;8.80;3.80;;;;;;;10.95;73.52;100159.00;5066729;28;20389;-28
2022/09/22 03:10:20;;;;;;;10.43;4.15;;;;;;;10.72;73.66;100142.75;5067045;28;20029;-26
2022/09/22 03:12:46;;;;;;;9.77;4.30;;;;;;;10.86;73.55;100161.09;5067610;28;20033;-28
2022/09/22 03:15:13;;;;;;;7.85;3.85;;;;;;;10.95;72.89;100159.00;5067250;28;20036;-27
2022/09/22 03:17:40;;;;;;;11.23;4.75;;;;;;;10.85;73.92;100154.13;5067493;28;20025;-27
2022/09/22 03:20:08;;;;;;;10.23;4.32;;;;;;;10.88;73.63;100147.53;5049129;28;20078;-26
2022/09/22 03:22:33;;;;;;;8.07;4.00;;;;;;;10.99;72.85;100154.84;5066658;28;20107;-28
2022/09/22 03:24:59;;;;;;;8.98;3.85;;;;;;;10.95;73.29;100166.16;5064411;28;20450;-26
2022/09/22 03:27:24;;;;;;;6.20;3.30;;;;;;;10.76;73.07;100158.09;5067263;28;20048;-29
2022/09/22 03:29:49;;;;;;;7.65;4.13;;;;;;;10.67;73.94;100150.63;5066720;28;20035;-26
2022/09/22 03:32:15;;;;;;;7.20;4.00;;;;;;;10.79;73.69;100165.69;5048303;28;20029;-27
2022/09/22 03:34:40;;;;;;;10.93;4.32;;;;;;;10.97;73.27;100166.75;5065935;28;20063;-26
2022/09/22 03:37:06;;;;;;;9.15;4.20;;;;;;;11.00;73.03;100174.34;5066996;28;20385;-29
2022/09/22 03:39:31;;;;;;;8.27;4.18;;;;;;;10.82;72.73;100159.91;5048804;28;20549;-26
2022/09/22 03:41:57;;;;;;;7.38;3.75;;;;;;;11.16;72.69;100171.09;5066779;28;20039;-28
2022/09/22 03:44:22;;;;;;;7.00;3.72;;;;;;;11.24;71.81;100178.03;5067018;28;20072;-27
2022/09/22 03:46:48;;;;;;;6.90;4.10;;;;;;;11.19;72.73;100181.34;5067039;28;20094;-30
2022/09/22 03:49:13;;;;;;;7.40;3.95;;;;;;;10.97;73.64;100188.09;5066927;28;20066;-26
2022/09/22 03:51:39;;;;;;;7.97;4.45;;;;;;;10.77;74.56;100177.63;5066870;28;20106;-29
2022/09/22 03:54:05;;;;;;;7.45;4.45;;;;;;;11.05;74.08;100190.50;5066620;28;20033;-26
2022/09/22 03:56:30;;;;;;;7.53;4.35;;;;;;;10.73;74.28;100174.56;5067025;28;20397;-26
2022/09/22 03:58:56;;;;;;;6.70;4.53;;;;;;;10.68;75.72;100179.72;5066721;28;20024;-28
2022/09/22 04:01:22;;;;;;;8.25;4.50;;;;;;;10.84;75.26;100194.38;5066693;28;20028;-27
2022/09/22 04:03:48;;;;;;;6.85;4.22;;;;;;;10.55;75.47;100177.16;5066760;28;20119;-26
2022/09/22 04:06:13;;;;;;;6.22;4.10;;;;;;;10.51;75.74;100178.63;5066389;28;20057;-31
2022/09/22 04:08:39;;;;;;;8.55;4.53;;;;;;;10.64;74.75;100183.84;5048744;28;20689;-26
2022/09/22 04:11:05;;;;;;;15.02;6.13;;;;;;;10.71;73.90;100200.63;5066519;28;20062;-26
2022/09/22 04:13:31;;;;;;;11.43;4.30;;;;;;;10.47;74.42;100177.41;5066730;28;20032;-28
2022/09/22 04:15:57;;;;;;;7.28;3.83;;;;;;;10.33;75.14;100192.66;5066548;28;20017;-28
2022/09/22 04:18:23;;;;;;;5.80;3.60;;;;;;;10.36;75.10;100192.22;5048817;28;20024;-26
2022/09/22 04:20:48;;;;;;;7.20;3.80;;;;;;;10.33;75.15;100187.34;5066725;28;20025;-26
2022/09/22 04:23:15;;;;;;;6.53;3.70;;;;;;;10.11;75.72;100174.28;5066723;28;20043;-27
2022/09/22 04:25:41;;;;;;;6.75;3.67;;;;;;;9.92;76.84;100177.88;5066504;28;20415;-28
2022/09/22 04:28:07;;;;;;;8.68;4.00;;;;;;;9.99;77.69;100197.31;5068431;28;20024;-26
2022/09/22 04:30:33;;;;;;;13.45;5.78;;;;;;;10.12;77.28;100202.59;5070308;28;20023;-27
2022/09/22 04:33:00;;;;;;;10.98;4.82;;;;;;;10.17;77.27;100183.28;5070376;28;20563;-28
2022/09/22 04:35:28;;;;;;;7.32;4.20;;;;;;;10.38;76.54;100203.50;5070195;28;20107;-27
2022/09/22 04:37:55;;;;;;;7.03;3.83;;;;;;;10.37;75.93;100204.53;5069958;28;20054;-27
2022/09/22 04:40:22;;;;;;;6.35;4.25;;;;;;;10.26;76.56;100177.50;5070339;28;20029;-26
2022/09/22 04:42:48;;;;;;;6.68;4.07;;;;;;;10.16;76.78;100165.69;5069836;28;20492;-26
2022/09/22 04:45:13;;;;;;;6.25;3.85;;;;;;;10.51;76.25;100190.09;5052283;28;20024;-30
2022/09/22 04:47:40;;;;;;;7.90;4.15;;;;;;;10.52;75.76;100196.22;5070032;28;20028;-28
2022/09/22 04:50:06;;;;;;;6.40;4.18;;;;;;;10.48;75.85;100197.69;5069930;28;20498;-26
2022/09/22 04:52:31;;;;;;;7.38;4.18;;;;;;;10.53;75.51;100187.22;5070043;28;20059;-26
2022/09/22 04:54:56;;;;;;;7.18;4.47;;;;;;;10.56;76.21;100176.09;5069695;28;20024;-27
2022/09/22 04:57:22;;;;;;;7.88;4.40;;;;;;;10.34;75.84;100181.78;5069842;28;20113;-29
2022/09/22 04:59:47;;;;;;;7.15;4.25;;;;;;;10.36;75.92;100193.06;5069730;28;20028;-26
2022/09/22 05:02:13;;;;;;;7.30;4.50;;;;;;;10.71;75.52;100189.16;5069743;28;20040;-30
2022/09/22 05:04:38;;;;;;;7.70;4.15;;;;;;;10.33;76.22;100172.16;5051350;28;20576;-28
2022/09/22 05:07:03;;;;;;;8.50;5.20;;;;;;;10.50;76.52;100199.13;5069827;28;20024;-26
2022/09/22 05:09:29;;;;;;;7.47;4.95;;;;;;;10.69;75.56;100193.88;5069640;28;20115;-28
2022/09/22 05:11:56;;;;;;;8.25;5.10;;;;;;;10.67;75.55;100188.75;5051128;28;20032;-26
2022/09/22 05:14:21;;;;;;;8.38;5.32;;;;;;;10.82;74.78;100186.56;5051479;28;20551;-27
2022/09/22 05:16:47;;;;;;;8.88;5.25;;;;;;;10.84;75.31;100205.84;5069605;28;20046;-27
2022/09/22 05:19:13;;;;;;;8.57;5.70;;;;;;;10.83;75.84;100203.41;5069702;28;20028;-27
2022/09/22 05:21:38;;;;;;;9.18;6.60;;;;;;;10.93;75.33;100202.91;5069457;28;20017;-26
2022/09/22 05:24:03;;;;;;;10.07;6.60;;;;;;;10.97;75.70;100207.63;5069377;28;20036;-26
2022/09/22 05:26:29;;;;;;;8.90;5.78;;;;;;;11.08;75.00;100210.63;5050960;28;20024;-32
2022/09/22 05:28:56;;;;;;;9.25;5.90;;;;;;;11.11;74.45;100188.81;5069612;28;20040;-28
2022/09/22 05:31:22;;;;;;;10.15;6.50;;;;;;;11.21;74.79;100200.63;5051327;28;20123;-27
2022/09/22 05:33:47;;;;;;;11.15;5.75;;;;;;;11.25;75.74;100204.47;5069000;28;20456;-26
2022/09/22 05:36:13;;;;;;;9.95;6.20;;;;;;;11.43;74.72;100208.22;5069000;28;20016;-30
2022/09/22 05:38:39;;;;;;;10.23;6.88;;;;;;;11.52;74.68;100206.88;5067936;28;20024;-26
2022/09/22 05:41:04;;;;;;;10.15;6.07;;;;;;;11.53;74.15;100194.38;5050779;28;20085;-27
2022/09/22 05:43:30;;;;;;;11.75;7.53;;;;;;;11.65;73.33;100201.41;5050748;28;20794;-26
2022/09/22 05:45:55;;;;;;;12.35;7.05;;;;;;;11.70;73.38;100210.63;5068801;28;20039;-34
2022/09/22 05:48:21;;;;;;;9.32;6.68;;;;;;;11.68;73.47;100212.69;5068873;28;20033;-28
2022/09/22 05:50:46;;;;;;;11.48;7.00;;;;;;;11.64;73.20;100210.44;5068715;28;20115;-27
2022/09/22 05:53:12;;;;;;;12.98;8.00;;;;;;;11.53;73.92;100203.19;5068567;28;20404;-26
2022/09/22 05:55:39;;;;;;;13.10;7.68;;;;;;;11.83;73.25;100202.47;5068613;28;20032;-27
2022/09/22 05:58:05;;;;;;;8.65;5.90;;;;;;;11.85;72.00;100189.69;5068914;28;20020;-26
2022/09/22 06:00:31;;;;;;;10.27;5.85;;;;;;;12.01;72.41;100215.00;5068808;28;20079;-28
2022/09/22 06:02:56;;;;;;;10.77;6.70;;;;;;;11.92;72.13;100194.97;5068851;28;20036;-28
2022/09/22 06:05:22;;;;;;;10.80;7.10;;;;;;;12.20;72.19;100224.63;5068915;28;20464;-25
2022/09/22 06:07:57;;;;;;;11.77;7.18;;;;;;;12.46;71.58;100228.81;5068565;28;20021;-28
2022/09/22 06:10:23;;;;;;;10.55;6.72;;;;;;;12.75;70.95;100226.34;5068199;28;20111;-28
2022/09/22 06:12:48;;;;;;;13.18;6.78;;;;;;;12.91;69.68;100213.31;5068106;28;20108;-26
2022/09/22 06:15:14;;;;;;;9.32;5.55;;;;;;;13.29;69.19;100236.19;5068305;28;20035;-26
2022/09/22 06:17:39;;;;;;;7.93;5.10;;;;;;;13.39;67.11;100225.75;5068459;28;20451;-27
2022/09/22 06:20:06;;;;;;;6.80;4.78;;;;;;;13.00;67.40;100207.41;5049965;28;20446;-26
2022/09/22 06:22:34;;;;;;;6.63;4.70;;;;;;;13.01;68.52;100229.63;5068066;28;20060;-27
2022/09/22 06:25:00;;;;;;;7.03;4.65;;;;;;;13.00;67.23;100195.91;5067867;28;20243;-26
2022/09/22 06:27:26;;;;;;;7.45;4.50;;;;;;;13.23;66.62;100228.03;5068027;28;20037;-27
2022/09/22 06:29:51;;;;;;;6.65;4.25;;;;;;;13.40;65.83;100214.81;5067984;28;20399;-27
2022/09/22 06:32:17;;;;;;;7.30;4.80;;;;;;;13.32;66.65;100204.44;5067861;28;20127;-29
2022/09/22 06:34:45;;;;;;;6.68;4.55;;;;;;;13.58;66.61;100223.75;5068024;28;20050;-26
2022/09/22 06:37:10;;;;;;;6.57;4.13;;;;;;;13.73;64.34;100220.56;5050556;28;20519;-28
2022/09/22 06:39:39;;;;;;;6.18;4.20;;;;;;;13.59;64.32;100226.19;5067870;28;20024;-28
2022/09/22 06:42:05;;;;;;;6.07;4.10;;;;;;;13.63;64.09;100222.00;5049963;28;20484;-32
2022/09/22 06:44:31;;;;;;;6.68;4.43;;;;;;;13.71;63.50;100230.72;5067886;28;20036;-27
2022/09/22 06:46:56;;;;;;;7.07;4.05;;;;;;;13.61;64.85;100229.47;5067780;28;20036;-27
2022/09/22 06:49:21;;;;;;;7.32;4.40;;;;;;;13.89;64.07;100224.38;5067471;28;20028;-26
2022/09/22 06:51:48;;;;;;;6.35;3.95;;;;;;;14.18;62.57;100227.91;5067134;28;20051;-28
2022/09/22 06:54:14;;;;;;;6.82;4.30;;;;;;;14.35;63.26;100211.91;5049041;28;20082;-26
2022/09/22 06:56:42;;;;;;;6.43;3.85;;;;;;;14.58;62.01;100206.44;5043436;28;20035;-30
2022/09/22 06:59:15;;;;;;;7.43;3.67;;;;;;;14.73;62.06;100221.16;5067157;28;20030;-28
2022/09/22 07:01:42;;;;;;;5.78;4.05;;;;;;;14.47;61.27;100231.44;5067172;28;20103;-27
2022/09/22 07:04:09;;;;;;;5.78;3.80;;;;;;;14.33;61.63;100228.22;5066662;28;20404;-27
2022/09/22 07:06:36;;;;;;;5.30;3.38;;;;;;;14.27;61.37;100213.91;5066603;28;20056;-27
2022/09/22 07:09:02;;;;;;;5.68;3.85;;;;;;;14.43;60.82;100209.63;5067041;28;20032;-28
2022/09/22 07:11:27;;;;;;;5.75;3.40;;;;;;;14.49;61.51;100220.47;5067292;28;20028;-31
2022/09/22 07:13:53;;;;;;;5.47;3.33;;;;;;;14.47;60.12;100234.94;5066767;28;20036;-27
2022/09/22 07:16:21;;;;;;;5.85;3.55;;;;;;;14.47;60.07;100224.19;5066846;28;20054;-27
2022/09/22 07:18:50;;;;;;;5.20;3.47;;;;;;;14.69;60.89;100220.84;5066953;28;20032;-27
2022/09/22 07:21:19;;;;;;;6.03;4.00;;;;;;;14.99;60.46;100208.97;5066576;28;20463;-28
2022/09/22 07:23:45;;;;;;;6.93;3.30;;;;;;;15.36;58.49;100225.38;5067300;28;20254;-27
2022/09/22 07:26:13;;;;;;;5.97;3.63;;;;;;;15.36;58.36;100216.53;5048515;28;20081;-29
2022/09/22 07:28:39;;;;;;;5.55;3.40;;;;;;;15.47;58.63;100212.94;5067087;28;20032;-27
2022/09/22 07:31:10;;;;;;;7.10;3.58;;;;;;;15.69;58.03;100223.69;5066890;28;20037;-26
2022/09/22 07:33:36;;;;;;;7.43;3.22;;;;;;;15.92;56.98;100222.69;5048620;28;20028;-26
2022/09/22 07:36:07;;;;;;;5.78;3.28;;;;;;;16.30;57.11;100223.66;5066755;28;20121;-30
2022/09/22 07:38:35;;;;;;;4.60;3.30;;;;;;;16.19;56.35;100220.03;5082107;28;20477;-29
2022/09/22 07:41:03;;;;;;;5.72;3.45;;;;;;;16.54;56.49;100224.16;5066850;28;20032;-28
2022/09/22 07:43:29;;;;;;;;;;;;;;;16.14;55.51;100221.84;5066366;28;20036;-27
2022/09/22 07:45:56;;;;;;;6.40;3.50;;;;;;;16.50;55.75;100217.66;5066562;28;20306;-28
2022/09/22 07:51:08;;;;;;;5.30;2.95;;;;;;;17.13;53.11;100236.03;5066624;28;20506;-26
2022/09/22 07:53:38;;;;;;;5.75;3.15;;;;;;;16.60;53.08;100225.03;5066772;28;20060;-29
2022/09/22 07:56:12;;;;;;;4.80;2.90;;;;;;;16.78;54.30;100242.72;5066604;28;20099;-26
2022/09/22 07:58:52;;;;;;;5.45;3.53;;;;;;;16.46;53.92;100233.50;5048451;28;20063;-27
2022/09/22 08:01:19;;;;;;;6.20;3.47;;;;;;;16.84;54.60;100204.81;5066547;28;20518;-28
2022/09/22 08:03:46;;;;;;;5.65;2.88;;;;;;;17.27;52.96;100219.13;5051969;28;20056;-26
2022/09/22 08:06:13;;;;;;;4.15;2.78;;;;;;;17.11;51.79;100227.38;5070377;28;20490;-27
2022/09/22 08:08:45;;;;;;;4.65;2.55;;;;;;;17.11;52.02;100220.09;5070347;28;20031;-29
2022/09/22 08:11:16;;;;;;;3.70;2.42;;;;;;;16.95;50.31;100229.94;5070207;28;20028;-30
2022/09/22 08:13:43;;;;;;;4.03;2.20;;;;;;;16.92;50.66;100210.78;5070575;28;20481;-28
2022/09/22 08:16:10;;;;;;;3.63;2.40;;;;;;;17.39;50.66;100208.16;5070369;28;20035;-29
2022/09/22 08:18:38;;;;;;;2.72;2.00;;;;;;;17.58;49.84;100218.50;5070338;28;20020;-27
2022/09/22 08:21:04;;;;;;;4.97;2.42;;;;;;;17.62;50.17;100214.22;5052232;28;20113;-28
2022/09/22 08:23:30;;;;;;;3.55;2.55;;;;;;;17.23;50.69;100228.81;5052033;28;20488;-29
2022/09/22 08:26:01;;;;;;;4.28;2.65;;;;;;;17.26;50.82;100219.38;5070013;28;20058;-28
2022/09/22 08:28:27;;;;;;;4.75;2.50;;;;;;;17.62;52.31;100220.41;5052005;28;20024;-27
2022/09/22 08:30:53;;;;;;;3.55;2.20;;;;;;;17.89;49.09;100213.28;5068713;28;20033;-28
2022/09/22 08:33:19;;;;;;;3.05;2.13;;;;;;;17.59;48.50;100220.97;5070121;28;20492;-29
2022/09/22 08:35:59;;;;;;;3.42;2.10;;;;;;;17.29;49.94;100223.47;5070198;28;20081;-30
2022/09/22 08:38:27;;;;;;;3.03;1.90;;;;;;;17.07;48.00;100224.38;5069952;28;20618;-26
2022/09/22 08:41:26;;;;;;;4.22;2.55;;;;;;;17.18;48.27;100226.09;5070236;28;20033;-26
2022/09/22 08:44:00;;;;;;;3.20;1.90;;;;;;;17.78;48.05;100209.72;5069822;28;20024;-26
2022/09/22 08:46:31;;;;;;;2.67;2.05;;;;;;;18.46;46.62;100217.78;5052060;28;20107;-26
2022/09/22 08:52:38;;;;;;;3.90;1.73;;;;;;;18.94;42.55;100222.97;5070229;28;20085;-28
2022/09/22 08:55:13;;;;;;;3.10;1.90;;;;;;;18.80;45.31;100210.00;5069368;28;20461;-27
2022/09/22 08:57:41;;;;;;;1.90;1.60;;;;;;;18.86;43.94;100214.34;5069453;28;20039;-28
2022/09/22 09:00:17;;;;;;;3.72;1.58;;;;;;;18.93;45.07;100218.66;5069308;28;20037;-35
2022/09/22 09:02:58;;;;;;;2.28;1.50;;;;;;;18.76;42.59;100217.00;5069649;28;20029;-29
2022/09/22 09:05:59;;;;;;;3.33;1.73;;;;;;;18.94;42.90;100229.22;5050799;28;20056;-28
2022/09/22 09:08:33;;;;;;;2.13;1.45;;;;;;;18.64;42.50;100197.56;5069350;28;20032;-27
2022/09/22 09:11:37;;;;;;;1.80;1.25;;;;;;;18.83;42.06;100201.34;5069340;28;20082;-27
2022/09/22 09:14:26;;;;;;;2.97;1.42;;;;;;;19.21;40.98;100214.59;5068928;28;20028;-26
2022/09/22 09:17:03;;;;;;;3.17;1.48;;;;;;;19.18;40.98;100202.41;5051090;28;20032;-26
2022/09/22 09:19:32;;;;;;;1.58;1.30;;;;;;;19.43;40.97;100206.16;5069364;28;20021;-29
2022/09/22 09:22:03;;;;;;;22.15;5.25;;;;;;;19.39;40.57;100191.56;5049704;28;20668;-26
2022/09/22 09:24:36;;;;;;;1.80;1.40;;;;;;;19.56;38.53;100199.38;5068969;28;20077;-27
2022/09/22 09:27:11;;;;;;;3.70;1.75;;;;;;;19.68;40.60;100197.97;5068859;28;20032;-28
2022/09/22 09:30:05;;;;;;;3.13;1.95;;;;;;;19.43;40.46;100188.03;5050705;28;20028;-27
2022/09/22 09:32:42;;;;;;;3.15;1.30;;;;;;;19.44;39.10;100175.31;5048422;28;20021;-30
2022/09/22 09:35:14;;;;;;;1.40;1.20;;;;;;;19.25;39.94;100183.22;5048887;28;20027;-27
2022/09/22 09:37:43;;;;;;;45.33;8.90;;;;;;;19.76;39.09;100158.75;5048680;28;20412;-28
2022/09/22 09:40:15;;;;;;;3.97;2.10;;;;;;;19.87;40.29;100162.19;5048916;28;20066;-27
2022/09/22 09:42:42;;;;;;;4.13;1.40;;;;;;;20.11;38.33;100165.06;5048516;28;20129;-30
2022/09/22 09:45:13;;;;;;;1.83;1.38;;;;;;;19.88;38.06;100166.53;5048829;28;20033;-27
2022/09/22 09:47:48;;;;;;;4.03;1.70;;;;;;;19.97;39.30;100169.47;5048526;28;20104;-27
2022/09/22 09:50:14;;;;;;;1.90;1.42;;;;;;;19.82;37.45;100162.25;5066177;28;20036;-28
2022/09/22 09:52:41;;;;;;;1.95;1.40;;;;;;;19.94;37.77;100165.41;5068286;28;20032;-26
2022/09/22 09:55:24;;;;;;;15.02;3.60;;;;;;;20.17;37.89;100157.72;5067854;28;20080;-31
2022/09/22 09:58:09;;;;;;;2.28;1.70;;;;;;;20.37;36.08;100157.56;5067548;28;20035;-27
2022/09/22 10:00:57;;;;;;;1.40;1.30;;;;;;;20.13;35.87;100148.53;5049529;28;20408;-30
2022/09/22 10:03:27;;;;;;;;;;;;;;;19.97;38.38;100159.44;5068726;28;20450;-27
2022/09/22 10:06:01;;;;;;;4.90;1.73;;;;;;;20.24;39.52;100155.47;5067235;28;19994;-27
2022/09/22 10:08:33;;;;;;;2.20;1.33;;;;;;;21.12;37.31;100171.88;5049993;28;20060;-30
2022/09/22 10:11:00;;;;;;;1.60;1.20;;;;;;;21.24;35.71;100169.56;5067910;28;20480;-27
2022/09/22 10:13:35;;;;;;;2.35;1.52;;;;;;;21.18;35.62;100166.09;5067990;28;20032;-28
2022/09/22 10:16:05;;;;;;;4.60;1.50;;;;;;;20.89;35.64;100174.25;5067501;28;20029;-26
2022/09/22 10:18:39;;;;;;;3.63;1.55;;;;;;;21.39;34.30;100155.84;5068017;28;20060;-28
2022/09/22 10:21:14;;;;;;;3.20;1.40;;;;;;;21.39;34.52;100166.72;5049759;28;20119;-28
2022/09/22 10:23:41;;;;;;;1.75;1.27;;;;;;;20.90;34.93;100170.44;5067755;28;20114;-27
2022/09/22 10:26:14;;;;;;;1.77;1.13;;;;;;;20.83;33.93;100165.34;5066639;28;20036;-32
2022/09/22 10:28:40;;;;;;;3.22;1.60;;;;;;;21.64;33.37;100151.25;5067501;28;20036;-29
2022/09/22 10:31:16;;;;;;;2.58;1.30;;;;;;;21.61;32.68;100168.91;5067504;28;20025;-27
2022/09/22 10:33:53;;;;;;;4.18;1.40;;;;;;;21.00;35.36;100154.09;5067629;28;20045;-28
2022/09/22 10:36:19;;;;;;;1.40;1.15;;;;;;;20.80;34.80;100165.09;5067500;28;20032;-29
2022/09/22 10:38:44;;;;;;;787.53;375.67;;;;;;;20.56;35.08;100148.78;5067267;28;20040;-26
2022/09/22 10:41:20;;;;;;;11.00;4.35;;;;;;;20.31;34.29;100171.41;5067120;28;20542;-29
2022/09/22 10:44:15;;;;;;;3.00;1.70;;;;;;;20.12;34.96;100171.28;5049328;28;20028;-26
2022/09/22 10:46:48;;;;;;;1.20;1.05;;;;;;;19.58;36.67;100162.03;5067069;28;20044;-26
2022/09/22 10:49:20;;;;;;;4.75;1.60;;;;;;;19.41;39.04;100170.44;5067203;28;20016;-28
2022/09/22 10:52:05;;;;;;;3.97;1.90;;;;;;;19.09;40.54;100171.63;5067019;28;20396;-30
2022/09/22 10:54:33;;;;;;;3.78;2.05;;;;;;;18.79;41.62;100172.44;5067263;28;20479;-28
2022/09/22 10:57:09;;;;;;;5.30;1.80;;;;;;;18.03;45.08;100145.06;5067062;28;20051;-30
2022/09/22 10:59:43;;;;;;;2.95;1.30;;;;;;;17.84;46.01;100163.66;5049211;28;20035;-27
2022/09/22 11:02:33;;;;;;;4.88;2.42;;;;;;;17.56;49.02;100156.75;5048706;28;20060;-31
2022/09/22 11:05:14;;;;;;;3.35;1.15;;;;;;;17.47;49.71;100161.03;5048600;28;20535;-30
2022/09/22 11:14:10;;;;;;;21.58;9.82;;;;;;;16.97;53.09;100148.88;5066827;28;20042;-32
2022/09/22 11:16:35;;;;;;;3.60;1.50;;;;;;;16.94;51.79;100150.22;5066576;28;20036;-28
2022/09/22 11:19:22;;;;;;;1.25;1.13;;;;;;;17.04;51.20;100154.84;5066950;28;20392;-26
2022/09/22 11:21:57;;;;;;;1.90;1.30;;;;;;;17.31;49.63;100156.63;5066205;28;20666;-27
2022/09/22 11:24:44;;;;;;;3.75;1.60;;;;;;;17.39;47.73;100145.38;5066606;28;20108;-26
2022/09/22 11:27:30;;;;;;;4.60;2.55;;;;;;;17.53;46.35;100149.19;5066720;28;20036;-26
2022/09/22 11:30:19;;;;;;;2.95;1.30;;;;;;;17.35;48.04;100145.06;5066112;28;20078;-33
2022/09/22 11:33:36;;;;;;;3.50;1.20;;;;;;;17.64;45.61;100137.38;5066406;28;20039;-29
2022/09/22 11:36:01;;;;;;;3.05;1.73;;;;;;;17.56;45.82;100150.56;5031450;28;20029;-27
2022/09/22 11:38:26;;;;;;;2.55;1.33;;;;;;;17.59;45.52;100150.84;5065900;28;20040;-27
2022/09/22 11:41:27;;;;;;;2.53;1.30;;;;;;;17.60;45.66;100157.84;5048322;28;20029;-28
2022/09/22 11:44:14;;;;;;;3.15;1.35;;;;;;;18.03;45.33;100150.47;5017417;28;20041;-27
2022/09/22 11:46:54;;;;;;;2.25;1.42;;;;;;;18.46;44.16;100148.38;5066547;28;20089;-28
2022/09/22 11:49:47;;;;;;;9.63;4.45;;;;;;;19.82;41.52;100146.00;5066432;28;20449;-28
2022/09/22 11:52:24;;;;;;;1.48;1.30;;;;;;;21.17;37.82;100148.22;5066172;28;20025;-30
2022/09/22 11:55:01;;;;;;;67.30;25.80;;;;;;;21.18;38.01;100149.81;5066484;28;20040;-28